Eelde Airport

Airport
ICAO code: 
EHGG
IATA Code: 
GRQ
Summary
ICAO Region: 
EUR
Territory: 
Location: 
Eelde, Drenthe
Serving: 
Groningen
Elevation: 
17 ft
Coordinates: 
Aerial View: 
53° 7' 10.992" N, 6° 34' 45.998" E
Metar
Observation
EHGG 060155Z AUTO 07006KT 5000 OVC005 02/01 Q1013
Station
Groningen Airport Eelde
Date/Time
2021-12-06 01:55:00
Wind direction
70°
Wind speed
06 kts
Lowest cloud amount
overcast
Temperature
2°C
Dew point
1°C
Humidity
93%
QNH
1013 hPa
Weather condition
n/a

Groningen Airport Eelde is a civilian airport near Eelde, a town in the province of Drenthe in the Netherlands. It is located 4.8 nm south of the city of Groningen.

Climatology

Temperate Marine climate/Oceanic climate (Köppen climate classification Cfb). Moderately cool summer and comparatively warm winter with a temperature range of only 14°C. Prevailing south-westerly winds from the Atlantic Ocean.

Runways

Designator Length Width Surface Rops
1/19 1500 45 ASP No/No
5/23 1800 45 ASP No/No
Airport map: 
Aerial View: 

Accidents and Serious Incidents at or in the vicinity of EHGG

SKYbrary Partners:

Safety knowledge contributed by: